Главная страница
METAR-TAF:

METAR-TAF

Аэропорты :

Лодзь, Польша

широта: 51-43-19N, долгота: 019-23-53E, высота над уровнем моря: 184 м

Текущие метеонаблюдения

Эта сводка был подготовлена 28 минут назад, в 23:30 UTC
Ветер 6 Узел от восточно-северо-восточный
Температура 15°C
Влажность 67%
Давление 1023 hPa
Видимость 10 км и более
Нет облачности ниже 1500 м, и нет кучево-дождевой облачности

METAR: EPLL 232330Z 07006KT CAVOK 15/09 Q1023

Время: 01:58 (23:58 UTC)

Прогноз

Эта сводка был подготовлена 28 минут назад, в 23:30 UTC
Прогноз действительный с 24-го 00 UTC до 24-го 24 UTC
Ветер 9 Узел от восточно-северо-восточный
Видимость 10 км и более
Нет облачности ниже 1500 м, и нет кучево-дождевой облачности

TAF: EPLL 232330Z 2400/2424 06009KT CAVOK

Метеонаблюдения и прогнозы для более 4000 аэропортов (сводки METAR и TAF).

Имеющиеся станции представлены на карте желтыми и красными точками.

Чтобы увидеть название станции, наведите на нее мышь.

Затем щелкните, чтобы увидеть метеонаблюдения и метеопрогнозы.

Управление картой: чтобы увеличить масштаб, щелкните зеленые кнопки с черным крестиком; чтобы уменьшить масштаб, щелкните зеленую кнопку с тире; для просмотра соседних карт щелкайте зеленые стрелки.


METAR-TAF: